1CD1 weather

Reed Airport
Nunn, Colorado, United States

Public forecast

Using degrees Fahrenheit for public forecast. Weather courtesy of forecast.io.

Closest aviation weather report (METAR) to Reed Airport

Closest report is Northern Colorado Regional Airport, 15.8 nm (29.2 km) SSW. Retrieved 2020/04/08 04:56 UTC (53 minutes ago):

KFNL 080456Z 28005KT 10SM CLR 11/M07 A2998 RMK AO2 SLP108 T01111072

Closest aviation forecast (TAF) to Reed Airport

Closest forecast is Cheyenne Regional Jerry Olson Field, 28.1 nm (52.0 km) N. Retrieved 2020-04-08 00:33 UTC (5 hours ago):

TAF KCYS 072320Z 0800/0824 29025G35KT P6SM SKC FM080200 29010G20KT P6SM SKC FM080300 29013KT P6SM SKC FM080600 32012G22KT P6SM BKN250 FM081300 32015G25KT P6SM SCT250